Time;durP1;ratioP1;P1;durP2;ratioP2;P2;SDS_P1;SDS_P2;PMS_P1;PMS_P2;Temp;Humidity;BMP_temperature;BMP_pressure;BME280_temperature;BME280_humidity;BME280_pressure;Samples;Min_cycle;Max_cycle;Signal;HPM_P1;HPM_P2
2022/01/23 00:02:07;;;;;;;10.95;4.50;;;6.50;99.90;;;;;;5078714;28;20078;-88
2022/01/23 00:04:32;;;;;;;8.45;3.42;;;6.50;99.90;;;;;;5097936;28;20188;-87
2022/01/23 00:07:02;;;;;;;9.07;3.75;;;6.60;99.90;;;;;;5078452;28;20535;-87
2022/01/23 00:09:29;;;;;;;9.23;4.13;;;6.60;99.90;;;;;;5096378;28;20039;-87
2022/01/23 00:11:55;;;;;;;7.75;4.03;;;6.60;99.90;;;;;;5113165;28;20040;-86
2022/01/23 00:17:17;;;;;;;7.85;4.20;;;6.60;99.90;;;;;;5067377;28;20145;-86
2022/01/23 00:19:45;;;;;;;10.15;3.83;;;6.70;99.90;;;;;;5113164;28;20055;-87
2022/01/23 00:22:11;;;;;;;8.80;3.88;;;6.60;99.90;;;;;;5113279;28;20087;-87
2022/01/23 00:30:27;;;;;;;10.45;4.43;;;6.50;99.90;;;;;;5080774;28;20054;-86
2022/01/23 00:32:54;;;;;;;8.43;4.22;;;6.60;99.90;;;;;;5113204;28;20052;-86
2022/01/23 00:35:20;;;;;;;7.90;4.13;;;6.60;99.90;;;;;;5078615;28;20048;-86
2022/01/23 00:37:46;;;;;;;13.05;4.63;;;6.60;99.90;;;;;;5112935;28;20536;-86
2022/01/23 00:40:11;;;;;;;11.57;4.60;;;6.60;99.90;;;;;;5113375;28;20147;-85
2022/01/23 00:42:37;;;;;;;11.15;5.00;;;6.60;99.90;;;;;;5095272;28;20442;-86
2022/01/23 00:45:25;;;;;;;12.40;4.60;;;6.60;99.90;;;;;;5078132;28;20047;-86
2022/01/23 00:47:50;;;;;;;11.93;4.50;;;6.60;99.90;;;;;;5112336;28;20132;-86
2022/01/23 00:50:16;;;;;;;7.43;4.40;;;6.60;99.90;;;;;;5113119;28;20051;-86
2022/01/23 00:52:42;;;;;;;10.32;4.85;;;6.60;99.90;;;;;;5112600;28;20499;-87
2022/01/23 00:55:08;;;;;;;10.27;5.03;;;6.60;99.90;;;;;;5094940;28;20475;-86
2022/01/23 00:57:34;;;;;;;11.18;5.00;;;6.60;99.90;;;;;;5094912;28;20548;-86
2022/01/23 01:00:00;;;;;;;12.82;5.00;;;6.60;99.90;;;;;;5094505;28;20043;-86
2022/01/23 01:02:26;;;;;;;13.18;5.13;;;6.70;99.90;;;;;;5112998;28;20127;-86
2022/01/23 01:04:52;;;;;;;14.48;5.47;;;6.60;99.90;;;;;;5094752;28;20130;-86
2022/01/23 01:07:17;;;;;;;10.52;5.28;;;6.60;99.90;;;;;;5094806;28;20047;-86
2022/01/23 01:09:48;;;;;;;12.55;5.53;;;6.70;99.90;;;;;;5113208;28;20047;-86
2022/01/23 01:12:21;;;;;;;9.43;5.13;;;6.60;99.90;;;;;;5113024;28;20055;-86
2022/01/23 01:31:06;;;;;;;15.52;5.30;;;6.60;99.90;;;;;;5112695;28;20105;-87
2022/01/23 01:36:02;;;;;;;13.70;5.90;;;6.60;99.90;;;;;;5112145;28;20087;-87
2022/01/23 01:38:28;;;;;;;12.20;5.78;;;6.60;99.90;;;;;;5078173;28;20047;-86
2022/01/23 01:40:53;;;;;;;13.55;5.53;;;6.60;99.90;;;;;;5112086;28;20039;-86
2022/01/23 01:43:19;;;;;;;10.98;5.40;;;6.60;99.90;;;;;;5097588;28;20051;-86
2022/01/23 01:45:45;;;;;;;11.70;5.47;;;6.60;99.90;;;;;;5098887;28;20040;-86
2022/01/23 01:48:12;;;;;;;9.02;5.28;;;6.70;99.90;;;;;;5098200;28;20467;-86
2022/01/23 01:50:43;;;;;;;8.20;5.40;;;6.60;99.90;;;;;;5082291;28;20434;-87
2022/01/23 01:53:11;;;;;;;15.15;5.90;;;6.60;99.90;;;;;;5098912;28;20047;-86
2022/01/23 01:55:42;;;;;;;11.35;4.93;;;6.60;99.90;;;;;;5081575;28;20492;-86
2022/01/23 01:58:21;;;;;;;11.30;5.38;;;6.50;99.90;;;;;;5116054;28;20127;-87
2022/01/23 02:00:54;;;;;;;11.05;5.13;;;6.60;99.90;;;;;;5116490;28;20101;-86
2022/01/23 02:08:45;;;;;;;13.02;5.57;;;6.50;99.90;;;;;;5100952;28;20052;-87
2022/01/23 02:11:28;;;;;;;13.35;5.60;;;6.50;99.90;;;;;;5097751;28;20126;-86
2022/01/23 02:14:08;;;;;;;9.90;5.25;;;6.50;99.90;;;;;;5097899;28;20063;-86
2022/01/23 02:17:03;;;;;;;13.07;5.50;;;6.60;99.90;;;;;;5116616;28;20102;-86
2022/01/23 02:57:21;;;;;;;12.45;6.05;;;6.50;99.90;;;;;;5114939;28;20055;-86
2022/01/23 02:59:48;;;;;;;14.48;6.50;;;6.50;99.90;;;;;;5097368;28;20059;-87
2022/01/23 03:02:28;;;;;;;10.93;6.20;;;6.50;99.90;;;;;;5096541;28;20048;-87
2022/01/23 03:04:59;;;;;;;8.75;5.57;;;6.50;99.90;;;;;;5080192;28;20134;-87
2022/01/23 03:10:07;;;;;;;11.27;5.97;;;6.60;99.90;;;;;;5114844;28;20448;-87
2022/01/23 03:15:45;;;;;;;10.18;6.22;;;6.60;99.90;;;;;;5114615;28;20055;-86
2022/01/23 03:26:49;;;;;;;16.75;6.55;;;6.50;99.90;;;;;;5114493;28;20108;-86
2022/01/23 03:34:18;;;;;;;12.73;6.68;;;6.60;99.90;;;;;;5114339;28;20498;-87
2022/01/23 03:36:44;;;;;;;12.55;5.60;;;6.50;99.90;;;;;;5096399;28;20066;-86
2022/01/23 03:39:10;;;;;;;9.70;6.32;;;6.50;99.90;;;;;;5113765;28;20047;-86
2022/01/23 03:41:37;;;;;;;13.10;5.88;;;6.60;99.90;;;;;;5114465;28;20035;-86
2022/01/23 03:44:05;;;;;;;12.00;6.25;;;6.50;99.90;;;;;;5096492;28;20043;-86
2022/01/23 03:46:46;;;;;;;13.70;6.40;;;6.50;99.90;;;;;;5079771;28;20051;-87
2022/01/23 03:49:31;;;;;;;11.23;6.75;;;6.50;99.90;;;;;;5114006;28;20083;-87
2022/01/23 03:52:10;;;;;;;13.18;6.43;;;6.40;99.90;;;;;;5081160;28;20043;-86
2022/01/23 03:54:36;;;;;;;14.90;6.40;;;6.50;99.90;;;;;;5114016;28;20048;-87
2022/01/23 03:57:02;;;;;;;12.15;6.60;;;6.50;99.90;;;;;;5061359;28;20096;-86
2022/01/23 03:59:28;;;;;;;12.65;6.18;;;6.50;99.90;;;;;;5094365;28;20047;-87
2022/01/23 04:01:54;;;;;;;14.13;6.30;;;6.50;99.90;;;;;;5078048;28;20395;-87
2022/01/23 04:07:06;;;;;;;13.13;6.43;;;6.50;99.90;;;;;;5096305;28;20157;-86
2022/01/23 04:09:32;;;;;;;11.30;6.25;;;6.50;99.90;;;;;;5113865;28;20047;-87
2022/01/23 04:11:59;;;;;;;11.18;6.88;;;6.50;99.90;;;;;;5095956;28;20051;-87
2022/01/23 04:14:26;;;;;;;12.70;6.60;;;6.50;99.90;;;;;;5113750;28;20045;-87
2022/01/23 04:19:44;;;;;;;11.65;6.63;;;6.50;99.90;;;;;;5114059;28;20058;-87
2022/01/23 04:33:25;;;;;;;14.07;6.70;;;6.40;99.90;;;;;;5067683;28;20070;-87
2022/01/23 05:00:23;;;;;;;11.98;6.80;;;6.40;99.90;;;;;;5112771;28;20047;-87
2022/01/23 05:03:42;;;;;;;15.77;6.75;;;6.50;99.90;;;;;;5094890;28;20058;-86
2022/01/23 05:05:48;;;;;;;11.80;6.60;;;6.40;99.90;;;;;;5093829;28;20055;-88
2022/01/23 05:08:18;;;;;;;14.98;6.65;;;6.50;99.90;;;;;;5111623;28;20089;-89
2022/01/23 05:10:45;;;;;;;10.60;6.75;;;6.50;99.90;;;;;;5094419;28;20118;-86
2022/01/23 05:13:11;;;;;;;16.67;7.57;;;6.50;99.90;;;;;;5095589;28;20052;-84
2022/01/23 05:15:37;;;;;;;9.38;6.57;;;6.50;99.90;;;;;;5113455;28;20156;-86
2022/01/23 05:18:02;;;;;;;15.05;7.20;;;6.50;99.90;;;;;;5113914;28;20055;-85
2022/01/23 05:20:29;;;;;;;13.20;7.43;;;6.50;99.90;;;;;;5112674;28;20036;-83
2022/01/23 05:23:01;;;;;;;11.20;6.72;;;6.60;99.90;;;;;;5113793;28;20372;-82
2022/01/23 05:25:30;;;;;;;13.25;7.13;;;6.50;99.90;;;;;;5096333;28;20475;-83
2022/01/23 05:27:56;;;;;;;12.75;6.60;;;6.50;99.90;;;;;;5113401;28;20040;-84
2022/01/23 05:30:22;;;;;;;18.55;7.50;;;6.50;99.90;;;;;;5095137;28;20070;-85
2022/01/23 05:32:47;;;;;;;16.92;8.07;;;6.50;99.90;;;;;;5113119;28;20047;-83
2022/01/23 05:35:14;;;;;;;15.45;7.32;;;6.50;99.90;;;;;;5113289;28;20036;-83
2022/01/23 05:37:40;;;;;;;13.40;6.97;;;6.60;99.90;;;;;;5112710;28;20090;-84
2022/01/23 05:40:07;;;;;;;12.65;7.40;;;6.50;99.90;;;;;;5112863;28;20511;-84
2022/01/23 05:42:51;;;;;;;10.95;6.70;;;6.50;99.90;;;;;;5078035;28;20043;-84
2022/01/23 05:45:17;;;;;;;10.85;6.68;;;6.50;99.90;;;;;;5113146;28;20502;-83
2022/01/23 05:47:43;;;;;;;13.55;6.65;;;6.50;99.90;;;;;;5112262;28;20098;-83
2022/01/23 05:50:09;;;;;;;12.02;6.80;;;6.50;99.90;;;;;;5113285;28;20044;-83
2022/01/23 05:52:34;;;;;;;11.50;7.00;;;6.50;99.90;;;;;;5094720;28;20479;-83
2022/01/23 05:55:00;;;;;;;13.27;6.75;;;6.50;99.90;;;;;;5095180;28;20521;-83
2022/01/23 05:57:26;;;;;;;12.20;6.75;;;6.50;99.90;;;;;;5112268;28;20126;-84
2022/01/23 05:59:51;;;;;;;13.90;7.65;;;6.50;99.90;;;;;;5094449;28;20051;-83
2022/01/23 06:02:17;;;;;;;13.82;7.00;;;6.50;99.90;;;;;;5077725;28;20046;-83
2022/01/23 06:04:43;;;;;;;13.32;8.18;;;6.60;99.90;;;;;;5113018;28;20403;-84
2022/01/23 06:07:08;;;;;;;10.60;6.85;;;6.50;99.90;;;;;;5095309;28;20086;-84
2022/01/23 06:09:37;;;;;;;17.20;7.07;;;6.50;99.90;;;;;;5112489;28;20082;-84
2022/01/23 06:12:03;;;;;;;12.88;6.25;;;6.50;99.90;;;;;;5112694;28;20048;-85
2022/01/23 06:14:29;;;;;;;12.18;6.70;;;6.60;99.90;;;;;;5112338;28;20055;-84
2022/01/23 06:16:55;;;;;;;13.50;6.40;;;6.50;99.90;;;;;;5112105;28;20475;-84
2022/01/23 06:19:20;;;;;;;11.13;6.28;;;6.60;99.90;;;;;;5094708;28;20047;-83
2022/01/23 06:21:46;;;;;;;9.70;6.15;;;6.50;99.90;;;;;;5112165;28;20059;-83
2022/01/23 06:24:24;;;;;;;9.80;5.95;;;6.50;99.90;;;;;;5094844;28;20132;-84
2022/01/23 06:26:52;;;;;;;11.30;6.32;;;6.50;99.90;;;;;;5112820;28;20131;-84
2022/01/23 06:29:18;;;;;;;10.75;6.20;;;6.50;99.90;;;;;;5098504;28;20088;-85
2022/01/23 06:31:47;;;;;;;11.50;6.13;;;6.50;99.90;;;;;;5116672;28;20297;-84
2022/01/23 06:34:13;;;;;;;11.57;5.97;;;6.50;99.90;;;;;;5082381;28;20046;-83
2022/01/23 06:36:41;;;;;;;10.68;5.45;;;6.50;99.90;;;;;;5116984;28;20100;-85
2022/01/23 06:39:09;;;;;;;11.60;5.68;;;6.60;99.90;;;;;;5098570;28;20552;-84
2022/01/23 06:41:35;;;;;;;12.45;6.22;;;6.50;99.90;;;;;;5080249;28;20092;-85
2022/01/23 06:44:01;;;;;;;12.57;6.45;;;6.50;99.90;;;;;;5097598;28;20471;-86
2022/01/23 06:46:27;;;;;;;21.90;7.47;;;6.50;99.90;;;;;;5081418;28;20051;-87
2022/01/23 06:48:53;;;;;;;15.38;6.93;;;6.50;99.90;;;;;;5116318;28;20043;-85
2022/01/23 06:51:18;;;;;;;15.07;6.63;;;6.50;99.90;;;;;;5115682;28;20074;-84
2022/01/23 06:53:44;;;;;;;14.00;6.90;;;6.50;99.90;;;;;;5115312;28;20075;-85
2022/01/23 06:56:10;;;;;;;15.52;6.80;;;6.50;99.90;;;;;;5115727;28;20055;-84
2022/01/23 06:58:35;;;;;;;16.63;6.60;;;6.60;99.90;;;;;;5080761;28;20361;-84
2022/01/23 07:01:01;;;;;;;15.73;6.35;;;6.50;99.90;;;;;;5098113;28;20424;-85
2022/01/23 07:03:27;;;;;;;25.73;6.35;;;6.40;99.90;;;;;;5115656;28;20051;-84
2022/01/23 07:05:52;;;;;;;26.52;7.03;;;6.40;99.90;;;;;;5116122;28;20047;-85
2022/01/23 07:08:18;;;;;;;22.95;6.50;;;6.40;99.90;;;;;;5115386;28;20507;-86
2022/01/23 07:10:44;;;;;;;16.02;6.00;;;6.50;99.90;;;;;;5097374;28;20073;-85
2022/01/23 07:13:10;;;;;;;20.58;6.35;;;6.50;99.90;;;;;;5063935;28;20044;-85
2022/01/23 07:15:35;;;;;;;22.73;6.88;;;6.40;99.90;;;;;;5096634;28;20051;-86
2022/01/23 07:18:01;;;;;;;19.27;6.53;;;6.40;99.90;;;;;;5097182;28;20065;-88
2022/01/23 07:20:27;;;;;;;32.92;8.00;;;6.40;99.90;;;;;;5115194;28;20039;-85
2022/01/23 07:22:52;;;;;;;18.02;6.40;;;6.40;99.90;;;;;;5079159;28;20491;-87
2022/01/23 07:25:18;;;;;;;21.73;6.63;;;6.40;99.90;;;;;;5115189;28;20051;-85
2022/01/23 07:27:50;;;;;;;15.27;6.00;;;6.50;99.90;;;;;;5096266;28;20065;-87
2022/01/23 07:32:48;;;;;;;17.45;6.63;;;6.40;99.90;;;;;;5063148;28;20108;-87
2022/01/23 07:35:13;;;;;;;13.35;6.18;;;6.40;99.90;;;;;;5096709;28;20048;-86
2022/01/23 07:37:39;;;;;;;12.20;6.30;;;6.50;99.90;;;;;;5096133;28;20454;-86
2022/01/23 07:40:05;;;;;;;14.05;5.90;;;6.50;99.90;;;;;;5114809;28;20048;-87
2022/01/23 07:42:31;;;;;;;17.17;5.97;;;6.50;99.90;;;;;;5096393;28;20414;-88
2022/01/23 07:44:57;;;;;;;11.65;6.22;;;6.50;99.90;;;;;;5113880;28;20043;-88
2022/01/23 07:47:23;;;;;;;17.92;6.78;;;6.50;99.90;;;;;;5114386;28;20432;-88
2022/01/23 07:49:50;;;;;;;14.25;6.68;;;6.50;99.90;;;;;;5078882;28;20078;-89
2022/01/23 07:52:16;;;;;;;16.35;6.93;;;6.50;99.90;;;;;;5096184;28;20490;-88
2022/01/23 07:54:42;;;;;;;14.68;6.97;;;6.40;99.90;;;;;;5096038;28;20051;-87
2022/01/23 07:57:11;;;;;;;11.93;6.72;;;6.50;99.90;;;;;;5095990;28;20053;-87
2022/01/23 07:59:36;;;;;;;9.32;6.43;;;6.60;99.90;;;;;;5079300;28;20050;-86
2022/01/23 08:02:05;;;;;;;8.63;6.18;;;6.50;99.90;;;;;;5045689;28;20395;-87
2022/01/23 08:04:31;;;;;;;10.63;6.40;;;6.50;99.90;;;;;;5096409;28;20100;-87
2022/01/23 08:09:58;;;;;;;11.73;7.53;;;6.50;99.90;;;;;;5028727;28;20053;-86
2022/01/23 08:12:25;;;;;;;13.25;7.22;;;6.60;99.90;;;;;;5050486;28;20052;-87
2022/01/23 08:14:51;;;;;;;8.90;6.82;;;6.50;99.90;;;;;;5090264;28;20094;-88
2022/01/23 08:17:24;;;;;;;10.43;5.95;;;6.50;99.90;;;;;;5058423;28;20392;-89
2022/01/23 08:19:53;;;;;;;8.32;6.28;;;6.60;99.90;;;;;;5109125;28;20052;-86
2022/01/23 08:22:22;;;;;;;9.38;6.22;;;6.60;99.90;;;;;;5113179;28;20052;-86
2022/01/23 08:24:48;;;;;;;9.05;5.65;;;6.60;99.90;;;;;;5095050;28;20051;-88
2022/01/23 08:27:14;;;;;;;8.60;5.53;;;6.60;99.90;;;;;;5078573;28;20043;-88
2022/01/23 08:29:40;;;;;;;7.28;5.22;;;6.70;99.90;;;;;;5078344;28;20124;-88
2022/01/23 08:32:06;;;;;;;7.97;5.70;;;6.60;99.90;;;;;;5113197;28;20051;-86
2022/01/23 08:34:32;;;;;;;7.43;5.40;;;6.60;99.90;;;;;;5113400;28;20047;-88
2022/01/23 08:36:57;;;;;;;6.82;5.32;;;6.60;99.90;;;;;;5112984;28;20379;-86
2022/01/23 08:39:25;;;;;;;5.78;4.72;;;6.70;99.90;;;;;;5113314;28;20083;-86
2022/01/23 08:41:51;;;;;;;5.75;4.70;;;6.70;99.90;;;;;;5112875;28;20058;-86
2022/01/23 08:44:21;;;;;;;6.70;4.93;;;6.70;99.90;;;;;;5077696;28;20475;-88
2022/01/23 08:46:47;;;;;;;5.70;4.90;;;6.80;99.90;;;;;;5112894;28;20047;-87
2022/01/23 08:49:13;;;;;;;6.25;5.28;;;6.80;99.90;;;;;;5095206;28;20130;-87
2022/01/23 08:51:38;;;;;;;7.45;5.40;;;6.80;99.90;;;;;;5077766;28;20471;-85
2022/01/23 08:54:05;;;;;;;6.68;5.22;;;6.90;99.90;;;;;;5077813;28;20055;-85
2022/01/23 08:56:31;;;;;;;9.20;5.63;;;6.90;99.90;;;;;;5113145;28;20055;-85
2022/01/23 08:58:57;;;;;;;6.10;5.15;;;6.90;99.90;;;;;;5061483;28;20051;-86
2022/01/23 09:01:23;;;;;;;8.65;5.68;;;7.00;99.90;;;;;;5112894;28;20047;-86
2022/01/23 09:03:49;;;;;;;7.32;6.15;;;7.00;99.90;;;;;;5094520;28;20044;-87
2022/01/23 09:06:14;;;;;;;8.30;6.68;;;7.00;99.90;;;;;;5112980;28;20054;-85
2022/01/23 09:08:41;;;;;;;9.23;7.07;;;7.00;99.90;;;;;;5094630;28;20391;-85
2022/01/23 09:11:27;;;;;;;9.35;6.53;;;7.00;99.90;;;;;;5112557;28;20092;-85
2022/01/23 09:14:06;;;;;;;19.40;6.53;;;7.00;99.90;;;;;;5112267;28;20062;-85
2022/01/23 09:16:58;;;;;;;4.82;4.22;;;7.10;99.90;;;;;;5079737;28;20055;-85
2022/01/23 09:19:25;;;;;;;5.75;4.60;;;7.10;99.90;;;;;;5089786;28;20070;-86
2022/01/23 09:21:50;;;;;;;5.07;4.35;;;7.10;99.90;;;;;;5060391;28;20055;-85
2022/01/23 09:24:17;;;;;;;6.47;4.65;;;7.10;99.90;;;;;;5112856;28;20044;-84
2022/01/23 09:26:45;;;;;;;4.88;4.30;;;7.20;99.90;;;;;;5094561;28;20146;-85
2022/01/23 09:29:23;;;;;;;4.63;4.13;;;7.20;99.90;;;;;;5094515;28;20046;-85
2022/01/23 09:31:49;;;;;;;4.95;4.45;;;7.30;99.90;;;;;;5079279;28;20113;-86
2022/01/23 09:34:17;;;;;;;5.15;4.47;;;7.30;99.90;;;;;;5112285;28;20047;-85
2022/01/23 09:36:43;;;;;;;7.28;5.13;;;7.40;99.90;;;;;;5077652;28;20047;-85
2022/01/23 09:39:10;;;;;;;4.93;4.43;;;7.40;99.90;;;;;;5112001;28;20052;-84
2022/01/23 09:41:35;;;;;;;5.47;4.60;;;7.40;99.90;;;;;;5094253;28;20039;-85
2022/01/23 09:44:01;;;;;;;5.03;4.53;;;7.50;99.90;;;;;;5093945;28;20092;-85
2022/01/23 09:46:27;;;;;;;5.70;4.55;;;7.50;99.90;;;;;;5094099;28;20051;-86
2022/01/23 09:48:52;;;;;;;6.18;4.60;;;7.50;99.90;;;;;;5094119;28;20536;-85
2022/01/23 09:51:22;;;;;;;5.07;4.55;;;7.60;99.90;;;;;;5112350;28;20046;-84
2022/01/23 09:53:48;;;;;;;4.30;3.90;;;7.60;99.90;;;;;;5112378;28;20051;-85
2022/01/23 09:56:15;;;;;;;5.65;4.53;;;7.60;99.90;;;;;;5060556;28;20051;-88
2022/01/23 09:58:40;;;;;;;4.75;4.15;;;7.60;99.90;;;;;;5077838;28;20057;-86
2022/01/23 10:01:06;;;;;;;4.05;3.65;;;7.60;99.90;;;;;;5093015;28;20044;-87
2022/01/23 10:03:32;;;;;;;5.13;3.67;;;7.70;99.90;;;;;;5113264;28;20054;-88
2022/01/23 10:05:57;;;;;;;3.75;3.08;;;7.70;99.90;;;;;;5097956;28;20467;-87
2022/01/23 10:08:24;;;;;;;5.13;3.35;;;7.70;99.90;;;;;;5116368;28;20567;-88
2022/01/23 10:10:54;;;;;;;6.22;3.40;;;7.80;99.90;;;;;;5081472;28;20052;-85
2022/01/23 10:13:24;;;;;;;3.03;2.50;;;7.90;99.90;;;;;;5098469;28;20123;-86
2022/01/23 10:15:50;;;;;;;3.42;2.58;;;7.90;99.90;;;;;;5081333;28;20058;-85
2022/01/23 10:18:16;;;;;;;3.10;2.80;;;7.90;99.90;;;;;;5097685;28;20039;-85
2022/01/23 10:20:42;;;;;;;3.38;2.70;;;7.90;99.90;;;;;;5064560;28;20127;-85
2022/01/23 10:23:09;;;;;;;2.92;2.50;;;8.00;99.90;;;;;;5063306;28;20499;-85
2022/01/23 10:25:36;;;;;;;5.65;3.72;;;8.10;99.90;;;;;;5097608;28;20043;-86
2022/01/23 10:28:04;;;;;;;3.53;2.78;;;8.10;99.90;;;;;;5080717;28;20051;-86
2022/01/23 10:30:42;;;;;;;2.92;2.63;;;8.10;99.90;;;;;;5064322;28;20043;-85
2022/01/23 10:33:17;;;;;;;4.63;2.90;;;8.20;99.90;;;;;;5066040;28;20092;-86
2022/01/23 10:36:02;;;;;;;4.18;3.28;;;8.20;99.90;;;;;;5081774;28;20441;-85
2022/01/23 10:38:39;;;;;;;5.05;4.25;;;8.20;99.90;;;;;;5097675;28;20049;-85
2022/01/23 10:41:31;;;;;;;5.65;4.53;;;8.20;99.90;;;;;;5097091;28;20480;-85
2022/01/23 10:49:55;;;;;;;7.93;4.38;;;8.30;99.90;;;;;;5097532;28;20051;-86
2022/01/23 10:52:34;;;;;;;4.20;3.50;;;8.30;99.90;;;;;;5096611;28;20055;-85
2022/01/23 10:55:01;;;;;;;3.30;2.75;;;8.30;99.90;;;;;;5079952;28;20471;-86
2022/01/23 10:57:35;;;;;;;4.07;3.10;;;8.30;99.90;;;;;;5097380;28;20039;-85
2022/01/23 11:00:04;;;;;;;4.53;3.05;;;8.30;99.90;;;;;;5096653;28;20040;-85
2022/01/23 11:02:29;;;;;;;3.53;2.33;;;8.30;99.90;;;;;;5115268;28;20051;-85
2022/01/23 11:05:05;;;;;;;4.00;2.13;;;8.40;99.90;;;;;;5096374;28;20044;-85
2022/01/23 11:07:32;;;;;;;3.47;2.55;;;8.40;99.90;;;;;;5097658;28;20134;-84
2022/01/23 11:10:10;;;;;;;2.53;2.33;;;8.40;99.90;;;;;;5115009;28;20400;-84
2022/01/23 11:18:07;;;;;;;4.22;2.95;;;8.40;99.90;;;;;;5096484;28;20063;-87
2022/01/23 11:20:43;;;;;;;2.80;2.47;;;8.40;99.90;;;;;;5096437;28;20044;-85
2022/01/23 11:23:22;;;;;;;3.47;2.60;;;8.40;99.90;;;;;;5078822;28;20054;-84
2022/01/23 11:25:57;;;;;;;3.50;2.70;;;8.40;99.90;;;;;;5080195;28;20055;-85
2022/01/23 11:28:29;;;;;;;3.35;3.05;;;8.50;99.90;;;;;;5096750;28;20071;-84
2022/01/23 11:30:55;;;;;;;4.93;3.08;;;8.40;99.90;;;;;;5096559;28;20044;-91
2022/01/23 11:33:21;;;;;;;3.65;2.47;;;8.40;99.90;;;;;;5062647;28;20131;-87
2022/01/23 11:35:48;;;;;;;2.72;2.15;;;8.50;99.90;;;;;;5079978;28;20051;-90
2022/01/23 11:38:17;;;;;;;6.30;3.10;;;8.40;99.90;;;;;;5079693;28;20047;-88
2022/01/23 11:54:47;;;;;;;3.72;2.58;;;8.50;99.90;;;;;;5096571;28;20074;-91
2022/01/23 11:57:35;;;;;;;3.17;2.88;;;8.50;99.90;;;;;;5080400;28;20429;-91
2022/01/23 12:00:28;;;;;;;4.65;2.97;;;8.50;99.90;;;;;;5081564;28;20130;-90
2022/01/23 12:03:17;;;;;;;3.30;3.00;;;8.50;99.90;;;;;;5115682;28;20058;-90
2022/01/23 12:05:47;;;;;;;3.80;3.13;;;8.60;99.90;;;;;;5050183;28;20047;-88
2022/01/23 12:08:26;;;;;;;5.72;3.30;;;8.60;99.90;;;;;;5114230;28;20123;-89
2022/01/23 12:18:50;;;;;;;5.47;3.85;;;8.70;99.90;;;;;;5080729;28;20108;-88
2022/01/23 12:21:29;;;;;;;5.63;4.20;;;8.70;99.90;;;;;;5078758;28;20039;-90
2022/01/23 12:24:05;;;;;;;4.80;3.92;;;8.80;99.90;;;;;;5092780;28;20399;-88
2022/01/23 12:26:31;;;;;;;7.18;4.60;;;8.80;99.90;;;;;;5090516;28;20048;-88
2022/01/23 12:29:11;;;;;;;6.38;4.22;;;8.70;99.90;;;;;;5075163;28;20074;-87
2022/01/23 12:31:36;;;;;;;5.63;4.07;;;8.80;99.90;;;;;;5076503;28;20039;-88
2022/01/23 12:34:02;;;;;;;8.93;4.70;;;8.70;99.90;;;;;;5093485;28;20097;-86
2022/01/23 12:36:29;;;;;;;7.43;4.50;;;8.80;99.90;;;;;;5092335;28;20488;-86
2022/01/23 12:39:16;;;;;;;6.18;4.60;;;8.70;99.90;;;;;;5075840;28;20079;-85
2022/01/23 12:41:51;;;;;;;6.15;4.30;;;8.80;99.90;;;;;;5092273;28;20086;-87
2022/01/23 12:44:23;;;;;;;8.43;4.93;;;8.70;99.90;;;;;;5092179;28;20118;-88
2022/01/23 12:46:53;;;;;;;6.30;4.55;;;8.80;99.90;;;;;;5091784;28;20423;-89
2022/01/23 12:49:21;;;;;;;6.55;4.60;;;8.80;99.90;;;;;;5091754;28;20048;-88
2022/01/23 12:52:08;;;;;;;6.90;4.30;;;8.70;99.90;;;;;;5092968;28;20528;-88
2022/01/23 12:54:35;;;;;;;6.75;4.47;;;8.80;99.90;;;;;;5077777;28;20075;-88
2022/01/23 12:57:09;;;;;;;8.00;4.68;;;8.80;99.90;;;;;;5091487;28;20047;-87
2022/01/23 12:59:36;;;;;;;6.30;4.63;;;8.80;99.90;;;;;;5074347;28;20093;-88
2022/01/23 13:02:04;;;;;;;7.97;5.00;;;8.80;99.90;;;;;;5092440;28;20044;-88
2022/01/23 13:04:47;;;;;;;9.05;4.85;;;8.80;99.90;;;;;;5091098;28;20500;-86
2022/01/23 13:07:21;;;;;;;6.13;4.25;;;8.80;99.90;;;;;;5091053;28;20044;-86
2022/01/23 13:31:51;;;;;;;4.05;3.00;;;8.70;99.90;;;;;;5091264;28;20117;-88
2022/01/23 13:34:34;;;;;;;4.22;2.55;;;8.70;99.90;;;;;;5091834;28;20052;-87
2022/01/23 13:37:12;;;;;;;4.50;2.40;;;8.70;99.90;;;;;;5092742;28;20101;-86
2022/01/23 13:39:50;;;;;;;2.55;2.13;;;8.70;99.90;;;;;;5062952;28;20127;-86
2022/01/23 13:42:35;;;;;;;5.80;2.40;;;8.70;99.90;;;;;;5062748;28;20079;-83
2022/01/23 13:53:37;;;;;;;2.88;1.70;;;8.60;99.90;;;;;;5080740;28;20055;-85
2022/01/23 13:59:10;;;;;;;3.65;2.05;;;8.60;99.90;;;;;;5081578;28;20458;-88
2022/01/23 14:01:49;;;;;;;3.67;2.00;;;8.50;99.90;;;;;;5095104;28;20120;-86
2022/01/23 14:04:16;;;;;;;2.65;1.95;;;8.50;99.90;;;;;;5081205;28;20078;-84
2022/01/23 14:06:42;;;;;;;4.10;2.33;;;8.40;99.90;;;;;;5095163;28;20044;-84
2022/01/23 14:09:09;;;;;;;2.15;1.73;;;8.40;99.90;;;;;;5094770;28;20498;-85
2022/01/23 14:11:34;;;;;;;4.60;1.80;;;8.40;99.90;;;;;;5061037;28;20047;-86
2022/01/23 14:14:15;;;;;;;2.85;1.88;;;8.40;99.90;;;;;;5094771;28;20051;-92
2022/01/23 14:16:41;;;;;;;2.97;1.75;;;8.40;99.90;;;;;;5077582;28;20079;-91
2022/01/23 14:19:14;;;;;;;2.70;2.22;;;8.30;99.90;;;;;;5061357;28;20127;-89
2022/01/23 14:21:44;;;;;;;6.43;2.20;;;8.40;99.90;;;;;;5060402;28;20131;-89
2022/01/23 14:24:09;;;;;;;4.03;1.93;;;8.30;99.90;;;;;;5094058;28;20087;-89
2022/01/23 14:26:35;;;;;;;2.90;2.40;;;8.30;99.90;;;;;;5093207;28;20459;-89
2022/01/23 14:29:05;;;;;;;5.72;3.53;;;8.40;99.90;;;;;;5077400;28;20056;-89
2022/01/23 14:31:38;;;;;;;5.63;3.60;;;8.30;99.90;;;;;;5077088;28;20056;-88
2022/01/23 14:34:23;;;;;;;6.75;3.88;;;8.20;99.90;;;;;;5094407;28;20131;-89
2022/01/23 14:36:55;;;;;;;5.75;3.50;;;8.20;99.90;;;;;;5079582;28;20271;-88
2022/01/23 14:39:22;;;;;;;4.55;3.22;;;8.20;99.90;;;;;;5078149;28;20048;-89
2022/01/23 14:41:48;;;;;;;7.40;3.50;;;8.20;99.90;;;;;;5076618;28;20044;-89
2022/01/23 14:44:16;;;;;;;7.00;3.70;;;8.20;99.90;;;;;;5095153;28;20051;-89
2022/01/23 14:46:41;;;;;;;5.47;3.58;;;8.20;99.90;;;;;;5060644;28;20131;-89
2022/01/23 14:49:10;;;;;;;6.90;3.58;;;8.20;99.90;;;;;;5092978;28;20131;-89
2022/01/23 14:51:37;;;;;;;5.57;3.90;;;8.20;99.90;;;;;;5077254;28;20399;-89
2022/01/23 14:54:03;;;;;;;6.65;4.18;;;8.20;99.90;;;;;;5094084;28;20040;-89
2022/01/23 14:56:31;;;;;;;4.28;3.17;;;8.20;99.90;;;;;;5077215;28;20040;-88
2022/01/23 14:58:56;;;;;;;6.22;3.60;;;8.20;99.90;;;;;;5077178;28;20048;-88
2022/01/23 15:01:22;;;;;;;6.20;3.63;;;8.10;99.90;;;;;;5076651;28;20133;-88
2022/01/23 15:03:55;;;;;;;6.78;3.33;;;8.20;99.90;;;;;;5093379;28;20422;-88
2022/01/23 15:06:24;;;;;;;8.95;3.40;;;8.10;99.90;;;;;;5062023;28;20140;-87
2022/01/23 15:08:53;;;;;;;6.03;2.50;;;8.10;99.90;;;;;;5092323;28;20066;-90
2022/01/23 15:11:18;;;;;;;6.45;2.95;;;8.10;99.90;;;;;;5099825;28;20051;-90
2022/01/23 15:13:44;;;;;;;6.95;3.03;;;8.10;99.90;;;;;;5094560;28;20044;-83
2022/01/23 15:16:10;;;;;;;4.40;3.50;;;8.10;99.90;;;;;;5094786;28;20369;-84
2022/01/23 15:18:36;;;;;;;5.40;3.00;;;8.10;99.90;;;;;;5091777;28;20040;-85
2022/01/23 15:21:01;;;;;;;3.70;2.92;;;8.00;99.90;;;;;;5088463;28;20382;-86
2022/01/23 15:23:27;;;;;;;4.65;2.90;;;8.10;99.90;;;;;;5091265;28;20134;-86
2022/01/23 15:25:53;;;;;;;5.28;2.90;;;8.00;99.90;;;;;;5097830;28;20391;-86
2022/01/23 15:28:19;;;;;;;6.93;3.60;;;8.00;99.90;;;;;;5097520;28;20051;-86
2022/01/23 15:30:45;;;;;;;6.57;3.60;;;8.00;99.90;;;;;;5097374;28;20036;-84
2022/01/23 15:33:10;;;;;;;4.15;3.75;;;7.90;99.90;;;;;;5097015;28;20047;-85
2022/01/23 15:35:38;;;;;;;4.18;3.38;;;7.90;99.90;;;;;;5096618;28;20475;-90
2022/01/23 15:38:04;;;;;;;4.03;3.08;;;7.90;99.90;;;;;;5096502;28;20052;-85
2022/01/23 15:40:29;;;;;;;4.28;2.80;;;7.90;99.90;;;;;;5113305;28;20088;-86
2022/01/23 15:42:55;;;;;;;4.80;3.28;;;7.90;99.90;;;;;;5096282;28;20054;-85
2022/01/23 15:45:23;;;;;;;4.72;2.72;;;7.90;99.90;;;;;;5115016;28;20044;-86
2022/01/23 15:47:49;;;;;;;4.55;2.75;;;7.80;99.90;;;;;;5112934;28;20088;-82
2022/01/23 15:50:15;;;;;;;3.80;2.83;;;7.80;99.90;;;;;;5113601;28;20419;-88
2022/01/23 15:52:41;;;;;;;3.15;2.58;;;7.80;99.90;;;;;;5112627;28;20393;-85
2022/01/23 15:55:07;;;;;;;3.17;2.55;;;7.80;99.90;;;;;;5106033;28;20080;-86
2022/01/23 15:57:33;;;;;;;4.72;2.83;;;7.80;99.90;;;;;;5112567;28;20046;-85
2022/01/23 15:59:59;;;;;;;4.95;2.83;;;7.70;99.90;;;;;;5113180;28;20039;-86
2022/01/23 16:02:25;;;;;;;5.47;2.65;;;7.80;99.90;;;;;;5112041;28;20035;-86
2022/01/23 16:04:50;;;;;;;5.68;3.20;;;7.70;99.90;;;;;;5113503;28;20051;-86
2022/01/23 16:07:18;;;;;;;4.97;3.20;;;7.70;99.90;;;;;;5104470;28;20054;-85
2022/01/23 16:09:44;;;;;;;4.53;3.67;;;7.70;99.90;;;;;;5110814;28;20100;-85
2022/01/23 16:12:11;;;;;;;5.35;3.47;;;7.70;99.90;;;;;;5112502;28;20042;-85
2022/01/23 16:14:36;;;;;;;3.83;3.05;;;7.70;99.90;;;;;;5112416;28;20048;-85
2022/01/23 16:17:02;;;;;;;4.00;2.55;;;7.70;99.90;;;;;;5113225;28;20059;-85
2022/01/23 16:19:28;;;;;;;5.22;2.72;;;7.70;99.90;;;;;;5095791;28;20391;-84
2022/01/23 16:21:55;;;;;;;3.38;2.78;;;7.70;99.90;;;;;;5102789;28;20043;-84
2022/01/23 16:24:24;;;;;;;2.90;2.60;;;7.70;99.90;;;;;;5113226;28;20059;-83
2022/01/23 16:26:50;;;;;;;3.42;2.15;;;7.70;99.90;;;;;;5095144;28;20123;-84